Time;durP1;ratioP1;P1;durP2;ratioP2;P2;SDS_P1;SDS_P2;PMS_P1;PMS_P2;Temp;Humidity;BMP_temperature;BMP_pressure;BME280_temperature;BME280_humidity;BME280_pressure;Samples;Min_cycle;Max_cycle;Signal;HPM_P1;HPM_P2
2021/11/19 00:01:40;;;;;;;24.55;7.57;;;;;;;9.15;100.00;102209.34;6299084;28;20055;-78
2021/11/19 00:04:43;;;;;;;25.10;7.90;;;;;;;9.11;100.00;102211.19;6299487;28;20047;-79
2021/11/19 00:07:45;;;;;;;18.30;8.50;;;;;;;9.13;100.00;102214.66;6299296;28;20052;-79
2021/11/19 00:10:46;;;;;;;18.85;8.45;;;;;;;9.18;100.00;102211.06;6299060;28;20048;-79
2021/11/19 00:13:49;;;;;;;25.00;7.90;;;;;;;9.22;100.00;102220.53;6299009;28;20045;-79
2021/11/19 00:16:55;;;;;;;18.95;8.80;;;;;;;9.24;100.00;102217.00;6299100;28;20048;-79
2021/11/19 00:19:56;;;;;;;16.05;6.45;;;;;;;9.21;100.00;102210.97;6297229;28;20067;-78
2021/11/19 00:22:59;;;;;;;21.73;8.02;;;;;;;9.22;100.00;102210.06;6293650;28;20056;-79
2021/11/19 00:26:01;;;;;;;23.23;8.27;;;;;;;9.19;100.00;102204.91;6290574;28;20075;-79
2021/11/19 00:29:04;;;;;;;18.35;8.30;;;;;;;9.20;100.00;102207.47;6296011;28;20044;-79
2021/11/19 00:32:06;;;;;;;17.83;8.07;;;;;;;9.19;100.00;102203.13;6294448;28;20053;-79
2021/11/19 00:35:10;;;;;;;19.02;7.82;;;;;;;9.20;100.00;102198.75;6281542;28;20050;-79
2021/11/19 00:38:15;;;;;;;19.92;7.35;;;;;;;9.22;100.00;102200.44;6290437;28;20048;-79
2021/11/19 00:41:17;;;;;;;21.88;7.68;;;;;;;9.24;100.00;102195.16;6297159;28;20404;-79
2021/11/19 00:44:22;;;;;;;28.42;8.27;;;;;;;9.28;100.00;102208.16;6298345;28;20507;-79
2021/11/19 00:47:23;;;;;;;22.27;7.57;;;;;;;9.30;100.00;102208.09;6298810;28;20056;-79
2021/11/19 00:50:28;;;;;;;20.02;7.38;;;;;;;9.23;100.00;102206.56;6297664;28;20458;-79
2021/11/19 00:53:30;;;;;;;19.98;7.20;;;;;;;9.31;100.00;102205.47;6290073;28;20043;-79
2021/11/19 00:56:34;;;;;;;23.20;8.80;;;;;;;9.36;100.00;102208.84;6297878;28;20053;-78
2021/11/19 00:59:39;;;;;;;22.45;8.48;;;;;;;9.30;100.00;102214.22;6297054;28;20060;-78
2021/11/19 01:02:40;;;;;;;16.98;7.95;;;;;;;9.37;100.00;102212.31;6284772;28;20049;-78
2021/11/19 01:05:42;;;;;;;21.67;8.50;;;;;;;9.32;100.00;102201.09;6284645;28;20051;-78
2021/11/19 01:08:44;;;;;;;21.33;8.00;;;;;;;9.33;100.00;102208.03;6289159;28;20063;-78
2021/11/19 01:11:47;;;;;;;21.73;7.72;;;;;;;9.37;100.00;102210.56;6289006;28;20484;-78
2021/11/19 01:14:53;;;;;;;21.45;8.07;;;;;;;9.37;100.00;102213.19;6298075;28;20491;-78
2021/11/19 01:17:57;;;;;;;18.63;7.82;;;;;;;9.30;100.00;102218.59;6289173;28;20445;-78
2021/11/19 01:21:02;;;;;;;17.33;6.88;;;;;;;9.32;100.00;102216.81;6297178;28;20052;-78
2021/11/19 01:24:03;;;;;;;24.80;8.60;;;;;;;9.32;100.00;102229.94;6297422;28;20052;-78
2021/11/19 01:27:07;;;;;;;17.75;7.50;;;;;;;9.35;100.00;102222.84;6291111;28;20048;-78
2021/11/19 01:30:13;;;;;;;20.45;8.02;;;;;;;9.37;100.00;102226.28;6294573;28;20561;-79
2021/11/19 01:33:15;;;;;;;16.67;7.32;;;;;;;9.35;100.00;102237.72;6272420;28;20614;-79
2021/11/19 01:36:18;;;;;;;22.08;8.48;;;;;;;9.37;100.00;102234.16;6272725;28;20526;-79
2021/11/19 01:39:22;;;;;;;18.85;8.25;;;;;;;9.39;100.00;102242.00;6272210;28;20045;-78
2021/11/19 01:42:27;;;;;;;19.52;8.02;;;;;;;9.38;100.00;102235.03;6271973;28;20045;-78
2021/11/19 01:45:34;;;;;;;21.13;8.77;;;;;;;9.45;100.00;102235.72;6274465;28;20041;-78
2021/11/19 01:48:40;;;;;;;16.10;7.72;;;;;;;9.49;100.00;102232.13;6290603;28;20055;-78
2021/11/19 01:51:51;;;;;;;17.95;7.50;;;;;;;9.51;100.00;102244.31;6288332;28;20056;-78
2021/11/19 01:54:55;;;;;;;16.83;7.50;;;;;;;9.51;100.00;102235.59;6292963;28;20041;-78
2021/11/19 01:58:03;;;;;;;18.85;7.72;;;;;;;9.52;100.00;102245.19;6293994;28;20136;-78
2021/11/19 02:01:10;;;;;;;27.38;9.55;;;;;;;9.54;100.00;102231.13;6274201;28;20299;-78
2021/11/19 02:04:16;;;;;;;21.08;8.70;;;;;;;9.54;100.00;102225.88;6272082;28;20091;-78
2021/11/19 02:07:21;;;;;;;17.65;7.20;;;;;;;9.56;100.00;102231.09;6271799;28;20052;-78
2021/11/19 02:10:30;;;;;;;18.35;9.07;;;;;;;9.58;100.00;102226.66;6273903;28;20056;-78
2021/11/19 02:13:39;;;;;;;20.08;9.13;;;;;;;9.58;100.00;102214.41;6276898;28;20044;-78
2021/11/19 02:16:46;;;;;;;18.83;8.55;;;;;;;9.58;100.00;102211.78;6277068;28;20060;-78
2021/11/19 02:19:51;;;;;;;20.60;8.23;;;;;;;9.58;100.00;102213.53;6287580;28;20495;-79
2021/11/19 02:22:56;;;;;;;12.13;6.18;;;;;;;9.58;100.00;102209.16;6292819;28;20045;-78
2021/11/19 02:26:02;;;;;;;22.67;9.20;;;;;;;9.55;100.00;102206.59;6292947;28;20052;-78
2021/11/19 02:29:05;;;;;;;17.45;8.30;;;;;;;9.57;100.00;102201.31;6291639;28;20040;-79
2021/11/19 02:32:12;;;;;;;23.10;8.98;;;;;;;9.58;100.00;102193.41;6295188;28;20044;-78
2021/11/19 02:35:17;;;;;;;17.08;8.27;;;;;;;9.61;100.00;102195.94;6296918;28;20515;-79
2021/11/19 02:38:23;;;;;;;23.95;9.30;;;;;;;9.62;100.00;102187.16;6292529;28;20515;-78
2021/11/19 02:41:27;;;;;;;19.35;8.35;;;;;;;9.60;100.00;102186.34;6284086;28;20068;-79
2021/11/19 02:44:34;;;;;;;16.52;8.35;;;;;;;9.58;100.00;102187.28;6277934;28;20052;-78
2021/11/19 02:47:37;;;;;;;17.83;7.78;;;;;;;9.58;100.00;102189.91;6293146;28;20139;-78
2021/11/19 02:50:39;;;;;;;22.77;8.70;;;;;;;9.60;100.00;102191.59;6300659;28;20050;-78
2021/11/19 02:53:41;;;;;;;18.08;8.27;;;;;;;9.62;100.00;102195.03;6300876;28;20044;-78
2021/11/19 02:56:45;;;;;;;19.35;8.30;;;;;;;9.62;100.00;102196.78;6300740;28;20052;-78
2021/11/19 02:59:48;;;;;;;18.52;8.38;;;;;;;9.62;100.00;102202.03;6290209;28;20045;-78
2021/11/19 03:02:51;;;;;;;22.75;9.13;;;;;;;9.59;100.00;102192.50;6299979;28;20037;-78
2021/11/19 03:05:52;;;;;;;22.83;10.13;;;;;;;9.58;100.00;102195.16;6292747;28;20054;-78
2021/11/19 03:08:54;;;;;;;17.95;7.78;;;;;;;9.58;100.00;102205.66;6288589;28;20055;-78
2021/11/19 03:11:56;;;;;;;27.33;9.45;;;;;;;9.59;100.00;102203.00;6300331;28;20059;-78
2021/11/19 03:15:00;;;;;;;20.65;9.02;;;;;;;9.55;100.00;102206.59;6300113;28;20045;-78
2021/11/19 03:18:03;;;;;;;24.67;8.77;;;;;;;9.58;100.00;102214.41;6292420;28;20041;-78
2021/11/19 03:21:12;;;;;;;22.52;10.45;;;;;;;9.62;100.00;102209.91;6300369;28;20055;-79
2021/11/19 03:24:15;;;;;;;15.83;7.43;;;;;;;9.62;100.00;102217.78;6292786;28;20060;-78
2021/11/19 03:27:18;;;;;;;20.48;9.35;;;;;;;9.63;100.00;102217.78;6292565;28;20522;-78
2021/11/19 03:30:21;;;;;;;23.55;9.00;;;;;;;9.60;100.00;102220.47;6301441;28;20056;-78
2021/11/19 03:33:27;;;;;;;21.08;7.63;;;;;;;9.60;100.00;102220.47;6318072;28;20068;-78
2021/11/19 03:36:30;;;;;;;19.80;8.88;;;;;;;9.59;100.00;102224.00;6316253;28;20064;-78
2021/11/19 03:39:32;;;;;;;23.63;8.95;;;;;;;9.61;100.00;102224.81;6306515;28;20055;-78
2021/11/19 03:42:33;;;;;;;23.10;8.95;;;;;;;9.61;100.00;102218.69;6309246;28;20045;-78
2021/11/19 03:45:43;;;;;;;24.08;8.70;;;;;;;9.60;100.00;102230.09;6317784;28;20051;-78
2021/11/19 03:48:47;;;;;;;17.63;8.32;;;;;;;9.58;100.00;102226.66;6310879;28;20036;-78
2021/11/19 03:51:54;;;;;;;17.15;7.95;;;;;;;9.60;100.00;102227.47;6298351;28;20040;-78
2021/11/19 03:54:58;;;;;;;14.52;7.32;;;;;;;9.60;100.00;102227.47;6291415;28;20045;-78
2021/11/19 03:58:00;;;;;;;20.42;7.95;;;;;;;9.63;100.00;102225.66;6292392;28;20049;-78
2021/11/19 04:01:05;;;;;;;22.15;8.20;;;;;;;9.62;100.00;102223.03;6280151;28;20053;-78
2021/11/19 04:04:09;;;;;;;19.42;8.80;;;;;;;9.60;100.00;102232.72;6291347;28;20047;-78
2021/11/19 04:07:13;;;;;;;18.42;7.55;;;;;;;9.62;100.00;102234.41;6298668;28;20040;-78
2021/11/19 04:10:15;;;;;;;21.58;9.30;;;;;;;9.62;100.00;102231.78;6298769;28;20051;-78
2021/11/19 04:13:17;;;;;;;23.63;8.80;;;;;;;9.65;100.00;102228.22;6290686;28;20048;-78
2021/11/19 04:16:23;;;;;;;26.08;8.18;;;;;;;9.62;100.00;102233.53;6298886;28;20059;-79
2021/11/19 04:19:29;;;;;;;18.63;8.63;;;;;;;9.65;100.00;102246.59;6299293;28;20049;-78
2021/11/19 04:22:30;;;;;;;23.60;8.90;;;;;;;9.63;100.00;102241.41;6296257;28;20487;-78
2021/11/19 04:25:32;;;;;;;26.42;9.15;;;;;;;9.64;100.00;102244.88;6289606;28;20052;-78
2021/11/19 04:28:34;;;;;;;24.10;8.85;;;;;;;9.65;100.00;102250.09;6289362;28;20058;-79
2021/11/19 04:31:36;;;;;;;19.83;8.30;;;;;;;9.66;100.00;102243.06;6285955;28;20484;-78
2021/11/19 04:34:41;;;;;;;21.85;8.90;;;;;;;9.66;100.00;102248.31;6291344;28;20059;-78
2021/11/19 04:37:42;;;;;;;25.80;9.05;;;;;;;9.71;100.00;102243.81;6292797;28;20048;-78
2021/11/19 04:40:44;;;;;;;20.10;7.90;;;;;;;9.72;100.00;102240.31;6296273;28;20044;-78
2021/11/19 04:43:46;;;;;;;23.88;8.77;;;;;;;9.71;100.00;102242.94;6289038;28;20388;-78
2021/11/19 04:46:48;;;;;;;22.50;8.77;;;;;;;9.70;100.00;102249.97;6294497;28;20048;-78
2021/11/19 04:49:51;;;;;;;25.73;10.13;;;;;;;9.78;100.00;102241.91;6288654;28;20045;-78
2021/11/19 04:52:53;;;;;;;25.85;9.77;;;;;;;9.77;100.00;102250.69;6291952;28;20055;-78
2021/11/19 04:55:55;;;;;;;26.48;11.30;;;;;;;9.80;100.00;102248.81;6291432;28;20046;-78
2021/11/19 04:58:56;;;;;;;19.13;8.10;;;;;;;9.81;100.00;102249.69;6291998;28;20045;-78
2021/11/19 05:02:02;;;;;;;20.25;9.27;;;;;;;9.87;100.00;102244.28;6288893;28;20048;-78
2021/11/19 05:05:05;;;;;;;21.88;9.77;;;;;;;9.88;100.00;102241.63;6291925;28;20041;-78
2021/11/19 05:08:08;;;;;;;25.58;10.82;;;;;;;9.85;100.00;102248.69;6294665;28;20049;-78
2021/11/19 05:11:14;;;;;;;26.90;9.90;;;;;;;9.87;100.00;102250.41;6297440;28;20694;-78
2021/11/19 05:14:16;;;;;;;18.27;8.48;;;;;;;9.84;100.00;102245.22;6297884;28;20056;-78
2021/11/19 05:17:22;;;;;;;20.55;9.23;;;;;;;9.87;100.00;102241.66;6289317;28;20056;-78
2021/11/19 05:20:26;;;;;;;23.67;9.77;;;;;;;9.93;100.00;102251.13;6296505;28;20075;-76
2021/11/19 05:23:28;;;;;;;21.83;9.93;;;;;;;9.97;100.00;102248.38;6295927;28;20178;-78
2021/11/19 05:26:30;;;;;;;23.30;8.90;;;;;;;9.95;100.00;102247.59;6288598;28;20495;-78
2021/11/19 05:29:32;;;;;;;17.85;7.75;;;;;;;9.93;100.00;102252.00;6293651;28;20045;-76
2021/11/19 05:32:34;;;;;;;34.10;10.98;;;;;;;9.95;100.00;102241.44;6288445;28;20389;-77
2021/11/19 05:35:37;;;;;;;17.63;8.80;;;;;;;9.96;100.00;102236.16;6294842;28;20059;-76
2021/11/19 05:38:39;;;;;;;17.52;7.80;;;;;;;9.94;100.00;102235.31;6289036;28;20045;-76
2021/11/19 05:41:41;;;;;;;20.02;8.15;;;;;;;9.98;100.00;102250.09;6286062;28;20667;-76
2021/11/19 05:44:43;;;;;;;18.00;8.55;;;;;;;9.96;100.00;102241.41;6292970;28;20044;-76
2021/11/19 05:47:44;;;;;;;20.10;8.75;;;;;;;9.97;100.00;102245.75;6289146;28;20044;-77
2021/11/19 05:50:48;;;;;;;23.58;9.20;;;;;;;9.96;100.00;102244.03;6287744;28;20051;-76
2021/11/19 05:53:50;;;;;;;28.40;8.73;;;;;;;9.98;100.00;102242.22;6292142;28;20175;-77
2021/11/19 05:56:52;;;;;;;23.23;9.00;;;;;;;10.02;100.00;102245.63;6292579;28;20051;-79
2021/11/19 05:59:54;;;;;;;21.08;8.48;;;;;;;10.04;100.00;102244.72;6289972;28;20045;-79
2021/11/19 06:02:55;;;;;;;18.88;8.05;;;;;;;10.04;100.00;102238.59;6290625;28;20044;-79
2021/11/19 06:05:58;;;;;;;24.33;10.55;;;;;;;10.02;100.00;102251.75;6294000;28;20041;-77
2021/11/19 06:09:00;;;;;;;22.00;8.68;;;;;;;10.01;100.00;102242.16;6289880;28;20045;-77
2021/11/19 06:12:05;;;;;;;20.70;10.35;;;;;;;10.03;100.00;102247.34;6292058;28;20052;-77
2021/11/19 06:15:12;;;;;;;22.02;9.05;;;;;;;10.05;100.00;102251.69;6301983;28;20056;-79
2021/11/19 06:18:24;;;;;;;22.92;8.63;;;;;;;10.07;100.00;102246.38;6298502;28;20103;-77
2021/11/19 06:21:30;;;;;;;20.27;8.75;;;;;;;10.14;100.00;102248.81;6295560;28;20037;-78
2021/11/19 06:24:35;;;;;;;18.67;8.15;;;;;;;10.10;100.00;102247.16;6288349;28;20072;-79
2021/11/19 06:27:38;;;;;;;17.67;8.88;;;;;;;10.15;100.00;102245.25;6292552;28;20097;-79
2021/11/19 06:30:40;;;;;;;22.40;7.65;;;;;;;10.10;100.00;102247.16;6290777;28;20044;-77
2021/11/19 06:33:41;;;;;;;18.00;8.35;;;;;;;10.10;100.00;102248.94;6296338;28;20518;-77
2021/11/19 06:36:45;;;;;;;19.48;8.32;;;;;;;10.11;100.00;102253.25;6293061;28;20052;-77
2021/11/19 06:39:46;;;;;;;22.73;9.70;;;;;;;10.08;100.00;102261.22;6288983;28;20040;-77
2021/11/19 06:42:48;;;;;;;15.93;8.60;;;;;;;10.13;100.00;102269.88;6284621;28;20067;-77
2021/11/19 06:45:50;;;;;;;19.02;8.35;;;;;;;10.09;100.00;102268.22;6288420;28;20045;-79
2021/11/19 06:48:52;;;;;;;18.73;7.90;;;;;;;10.10;100.00;102272.56;6287640;28;20048;-80
2021/11/19 06:51:55;;;;;;;17.90;8.32;;;;;;;10.06;100.00;102274.41;6293162;28;20045;-78
2021/11/19 06:54:56;;;;;;;16.73;7.88;;;;;;;10.05;100.00;102277.09;6287862;28;20052;-79
2021/11/19 06:57:58;;;;;;;21.50;7.88;;;;;;;10.16;100.00;102277.63;6296698;28;20061;-79
2021/11/19 07:01:01;;;;;;;19.92;9.02;;;;;;;10.15;100.00;102284.66;6300339;28;20052;-79
2021/11/19 07:04:03;;;;;;;20.50;8.00;;;;;;;10.11;100.00;102283.03;6299100;28;20049;-79
2021/11/19 07:07:08;;;;;;;21.70;8.60;;;;;;;10.18;100.00;102286.34;6300886;28;20052;-78
2021/11/19 07:10:10;;;;;;;24.63;8.65;;;;;;;10.11;100.00;102282.16;6300519;28;20190;-79
2021/11/19 07:13:13;;;;;;;22.73;8.68;;;;;;;10.09;100.00;102287.47;6301195;28;20048;-78
2021/11/19 07:16:14;;;;;;;20.83;8.02;;;;;;;10.11;100.00;102290.91;6300905;28;20565;-79
2021/11/19 07:19:16;;;;;;;25.45;8.48;;;;;;;10.09;100.00;102287.47;6300509;28;20056;-79
2021/11/19 07:22:18;;;;;;;21.27;8.75;;;;;;;10.09;100.00;102289.22;6300391;28;20534;-80
2021/11/19 07:25:21;;;;;;;22.00;7.60;;;;;;;10.07;100.00;102293.66;6300428;28;20045;-79
2021/11/19 07:28:24;;;;;;;21.67;9.13;;;;;;;10.07;100.00;102293.66;6299291;28;20518;-79
2021/11/19 07:31:26;;;;;;;23.40;8.98;;;;;;;10.08;100.00;102296.25;6300972;28;20045;-77
2021/11/19 07:34:28;;;;;;;18.48;7.70;;;;;;;10.07;100.00;102294.50;6300421;28;20048;-79
2021/11/19 07:37:30;;;;;;;26.88;9.32;;;;;;;10.07;100.00;102296.28;6300755;28;20048;-79
2021/11/19 07:40:35;;;;;;;17.83;8.73;;;;;;;10.06;100.00;102298.03;6300993;28;20048;-80
2021/11/19 07:43:40;;;;;;;22.10;9.40;;;;;;;10.10;100.00;102304.94;6301483;28;20539;-81
2021/11/19 07:46:41;;;;;;;23.52;9.10;;;;;;;10.07;100.00;102304.16;6301419;28;20045;-80
2021/11/19 07:49:43;;;;;;;20.30;8.52;;;;;;;10.03;100.00;102303.38;6302312;28;20044;-80
2021/11/19 07:52:45;;;;;;;23.92;8.30;;;;;;;10.00;100.00;102305.25;6300425;28;20048;-80
2021/11/19 07:55:47;;;;;;;18.38;8.43;;;;;;;10.00;100.00;102306.09;6300944;28;20044;-80
2021/11/19 07:58:48;;;;;;;19.25;7.93;;;;;;;9.99;100.00;102304.38;6300391;28;20442;-80
2021/11/19 08:01:50;;;;;;;16.67;8.30;;;;;;;10.04;100.00;102312.13;6300637;28;20056;-79
2021/11/19 08:04:52;;;;;;;18.90;8.15;;;;;;;10.01;100.00;102313.06;6300505;28;20045;-80
2021/11/19 08:07:54;;;;;;;21.48;8.38;;;;;;;10.01;100.00;102314.84;6300143;28;20060;-79
2021/11/19 08:10:56;;;;;;;15.90;8.90;;;;;;;10.03;100.00;102320.91;6300766;28;20044;-80
2021/11/19 08:13:57;;;;;;;16.42;7.80;;;;;;;10.02;100.00;102317.41;6301482;28;20045;-80
2021/11/19 08:17:03;;;;;;;13.90;6.45;;;;;;;10.05;100.00;102319.09;6300911;28;20056;-80
2021/11/19 08:20:06;;;;;;;15.10;7.47;;;;;;;10.01;100.00;102325.34;6300657;28;20056;-80
2021/11/19 08:23:12;;;;;;;17.33;8.07;;;;;;;10.09;100.00;102323.38;6300458;28;20052;-79
2021/11/19 08:26:17;;;;;;;20.45;8.80;;;;;;;10.03;100.00;102321.75;6300736;28;20565;-80
2021/11/19 08:29:21;;;;;;;18.33;9.52;;;;;;;10.03;100.00;102319.13;6298882;28;20044;-80
2021/11/19 08:32:24;;;;;;;18.75;8.15;;;;;;;10.07;100.00;102325.16;6299806;28;20048;-79
2021/11/19 08:35:26;;;;;;;23.73;8.48;;;;;;;10.06;100.00;102318.19;6299338;28;20060;-79
2021/11/19 08:38:29;;;;;;;16.45;8.05;;;;;;;10.14;100.00;102329.38;6299216;28;20044;-80
2021/11/19 08:41:30;;;;;;;20.73;7.95;;;;;;;10.21;100.00;102320.41;6299963;28;20048;-79
2021/11/19 08:44:31;;;;;;;14.98;6.75;;;;;;;10.21;100.00;102323.03;6298857;28;20064;-80
2021/11/19 08:47:33;;;;;;;22.92;7.97;;;;;;;10.21;100.00;102324.81;6299919;28;20055;-79
2021/11/19 08:50:39;;;;;;;21.35;8.63;;;;;;;10.30;100.00;102322.81;6299113;28;20048;-79
2021/11/19 08:53:42;;;;;;;21.05;9.52;;;;;;;10.33;100.00;102320.13;6299407;28;20053;-79
2021/11/19 08:56:45;;;;;;;19.02;8.00;;;;;;;10.45;100.00;102326.81;6298419;28;20049;-79
2021/11/19 08:59:49;;;;;;;22.08;8.88;;;;;;;10.51;100.00;102321.38;6298967;28;20048;-80
2021/11/19 09:02:50;;;;;;;21.30;8.57;;;;;;;10.57;100.00;102326.47;6298572;28;20055;-80
2021/11/19 09:05:52;;;;;;;22.85;8.85;;;;;;;10.58;100.00;102332.59;6298221;28;20476;-79
2021/11/19 09:08:55;;;;;;;19.45;9.15;;;;;;;10.60;100.00;102326.38;6285210;28;20488;-77
2021/11/19 09:11:57;;;;;;;18.48;8.65;;;;;;;10.64;100.00;102328.03;6283339;28;20048;-78
2021/11/19 09:14:58;;;;;;;22.58;9.10;;;;;;;10.67;100.00;102321.81;6285575;28;20041;-79
2021/11/19 09:18:20;;;;;;;25.10;7.90;;;;;;;10.71;100.00;102323.44;6284968;28;20052;-79
2021/11/19 09:21:26;;;;;;;23.45;10.18;;;;;;;10.71;100.00;102327.84;6272143;28;20053;-79
2021/11/19 09:24:32;;;;;;;22.35;8.75;;;;;;;10.80;100.00;102331.06;6273163;28;20092;-79
2021/11/19 09:27:34;;;;;;;21.48;8.40;;;;;;;10.81;100.00;102330.19;6282285;28;20056;-79
2021/11/19 09:30:38;;;;;;;16.95;8.23;;;;;;;10.85;100.00;102334.44;6297469;28;20753;-78
2021/11/19 09:33:40;;;;;;;18.27;8.85;;;;;;;10.87;100.00;102340.53;6297590;28;20044;-79
2021/11/19 09:36:42;;;;;;;24.42;10.30;;;;;;;10.88;100.00;102334.34;6296369;28;20055;-78
2021/11/19 09:39:47;;;;;;;17.00;7.13;;;;;;;10.87;100.00;102337.88;6296937;28;20490;-78
2021/11/19 09:42:56;;;;;;;20.55;8.55;;;;;;;10.88;100.00;102338.75;6296373;28;20063;-78
2021/11/19 09:46:33;;;;;;;25.45;9.45;;;;;;;10.96;100.00;102328.00;6297266;28;20048;-79
2021/11/19 09:50:03;;;;;;;20.95;8.32;;;;;;;10.93;100.00;102332.44;6297463;28;20068;-79
2021/11/19 09:53:45;;;;;;;19.20;9.02;;;;;;;11.01;100.00;102321.69;6297296;28;20139;-79
2021/11/19 09:57:09;;;;;;;20.63;9.13;;;;;;;11.04;100.00;102326.03;6294347;28;20048;-78
2021/11/19 10:00:18;;;;;;;20.50;8.30;;;;;;;11.05;100.00;102330.38;6272002;28;20519;-79
2021/11/19 10:03:36;;;;;;;21.58;8.45;;;;;;;11.06;100.00;102334.72;6271760;28;20060;-78
2021/11/19 10:06:42;;;;;;;17.77;8.53;;;;;;;11.06;100.00;102326.81;6271424;28;20041;-77
2021/11/19 10:09:50;;;;;;;18.95;8.75;;;;;;;11.15;100.00;102318.66;6271443;28;20135;-78
2021/11/19 10:13:00;;;;;;;16.92;7.55;;;;;;;11.09;100.00;102324.97;6276554;28;20055;-75
2021/11/19 10:16:12;;;;;;;;;;;;;;;11.13;100.00;102325.75;6297169;28;20101;-76
2021/11/19 10:19:20;;;;;;;13.82;7.13;;;;;;;11.17;100.00;102327.34;6295984;28;19920;-76
2021/11/19 10:22:25;;;;;;;22.60;8.07;;;;;;;11.18;100.00;102322.06;6295131;28;20435;-77
2021/11/19 10:25:33;;;;;;;20.80;8.98;;;;;;;11.23;100.00;102331.59;6296128;28;20083;-77
2021/11/19 10:28:39;;;;;;;17.90;8.95;;;;;;;11.28;100.00;102324.41;6297056;28;20055;-78
2021/11/19 10:31:40;;;;;;;19.75;8.95;;;;;;;11.27;100.00;102320.06;6297355;28;20054;-78
2021/11/19 10:34:48;;;;;;;18.88;8.70;;;;;;;11.25;100.00;102319.22;6301789;28;20053;-78
2021/11/19 10:38:23;;;;;;;18.98;8.27;;;;;;;11.29;100.00;102324.34;6301079;28;20048;-78
2021/11/19 10:41:43;;;;;;;21.40;8.73;;;;;;;11.37;100.00;102316.22;6301774;28;20131;-77
2021/11/19 10:45:01;;;;;;;15.70;7.80;;;;;;;11.38;100.00;102316.16;6301227;28;20059;-78
2021/11/19 10:48:24;;;;;;;17.40;7.40;;;;;;;11.39;100.00;102317.03;6301611;28;20040;-78
2021/11/19 10:51:51;;;;;;;18.00;8.10;;;;;;;11.43;100.00;102329.19;6298380;28;20049;-78
2021/11/19 10:55:33;;;;;;;20.95;8.13;;;;;;;11.54;100.00;102316.56;6276287;28;20060;-77
2021/11/19 10:58:49;;;;;;;20.15;8.23;;;;;;;11.50;100.00;102330.72;6276006;28;20083;-78
2021/11/19 11:02:01;;;;;;;20.48;8.48;;;;;;;11.50;100.00;102327.22;6275775;28;20115;-77
2021/11/19 11:05:28;;;;;;;17.38;8.02;;;;;;;11.55;100.00;102310.38;6275829;28;20136;-78
2021/11/19 11:08:32;;;;;;;18.02;8.25;;;;;;;11.59;100.00;102309.38;6276147;28;20049;-78
2021/11/19 11:11:39;;;;;;;18.23;8.27;;;;;;;11.66;100.00;102313.50;6275743;28;20049;-77
2021/11/19 11:14:43;;;;;;;21.85;8.35;;;;;;;11.68;100.00;102314.34;6275693;28;20056;-78
2021/11/19 11:18:18;;;;;;;15.68;6.68;;;;;;;11.60;100.00;102310.22;6275600;28;20049;-79
2021/11/19 11:21:26;;;;;;;16.67;7.55;;;;;;;11.73;100.00;102310.69;6267006;28;20049;-77
2021/11/19 11:24:30;;;;;;;17.35;8.35;;;;;;;11.69;100.00;102318.69;6300014;28;20067;-78
2021/11/19 11:27:58;;;;;;;14.23;7.55;;;;;;;11.73;100.00;102314.19;6300087;28;20056;-78
2021/11/19 11:31:13;;;;;;;14.38;7.10;;;;;;;11.75;100.00;102300.94;6300165;28;20052;-77
2021/11/19 11:34:24;;;;;;;17.98;8.30;;;;;;;11.88;100.00;102311.06;6299726;28;20052;-77
2021/11/19 11:37:35;;;;;;;16.08;7.43;;;;;;;11.89;100.00;102311.91;6300060;28;20045;-78
2021/11/19 11:40:40;;;;;;;16.60;6.82;;;;;;;11.80;100.00;102304.28;6299607;28;20056;-78
2021/11/19 11:43:44;;;;;;;14.90;6.90;;;;;;;11.82;100.00;102306.00;6299701;28;20052;-79
2021/11/19 11:46:56;;;;;;;13.70;6.53;;;;;;;11.83;100.00;102307.72;6299617;28;20546;-78
2021/11/19 11:50:02;;;;;;;16.10;7.57;;;;;;;11.91;100.00;102304.84;6299852;28;20139;-77
2021/11/19 11:53:09;;;;;;;15.30;6.75;;;;;;;11.86;100.00;102307.63;6280126;28;20045;-78
2021/11/19 11:56:19;;;;;;;14.80;6.90;;;;;;;11.81;100.00;102306.88;6275125;28;20049;-77
2021/11/19 11:59:29;;;;;;;15.27;6.25;;;;;;;11.81;100.00;102312.16;6274641;28;20535;-78
2021/11/19 12:02:37;;;;;;;;;;;;;;;11.77;100.00;102304.41;6275001;28;20057;-77
2021/11/19 12:05:45;;;;;;;12.30;6.20;;;;;;;11.77;100.00;102288.59;6274752;28;19927;-78
2021/11/19 12:09:03;;;;;;;12.88;6.93;;;;;;;11.78;100.00;102288.53;6274566;28;20768;-78
2021/11/19 12:12:30;;;;;;;18.63;7.50;;;;;;;11.79;100.00;102292.03;6274491;28;20512;-78
2021/11/19 12:15:42;;;;;;;15.00;6.50;;;;;;;11.80;100.00;102288.47;6274386;28;20048;-78
2021/11/19 12:18:47;;;;;;;12.02;6.25;;;;;;;11.79;100.00;102285.00;6274861;28;20053;-80
2021/11/19 12:22:01;;;;;;;12.80;6.00;;;;;;;11.91;100.00;102291.66;6275342;28;20044;-79
2021/11/19 12:25:23;;;;;;;15.93;7.20;;;;;;;11.89;100.00;102285.56;6274285;28;20049;-78
2021/11/19 12:28:30;;;;;;;13.80;6.47;;;;;;;11.90;100.00;102293.44;6274272;28;20057;-80
2021/11/19 12:31:37;;;;;;;15.85;6.03;;;;;;;11.99;100.00;102286.09;6274047;28;20049;-78
2021/11/19 12:34:40;;;;;;;12.60;6.22;;;;;;;11.88;100.00;102284.72;6274454;28;20058;-78
2021/11/19 12:37:52;;;;;;;13.02;5.97;;;;;;;11.93;100.00;102303.00;6274153;28;20091;-78
2021/11/19 12:40:58;;;;;;;15.70;6.05;;;;;;;11.93;100.00;102305.63;6273582;28;20080;-78
2021/11/19 12:44:20;;;;;;;9.43;5.53;;;;;;;11.88;100.00;102297.03;6274186;28;20178;-78
2021/11/19 12:47:36;;;;;;;12.48;5.43;;;;;;;11.92;100.00;102291.59;6274002;28;20052;-79
2021/11/19 12:50:41;;;;;;;8.93;4.55;;;;;;;12.03;100.00;102285.09;6274338;28;20053;-79
2021/11/19 12:53:53;;;;;;;11.15;5.70;;;;;;;12.00;100.00;102286.06;6273974;28;20099;-78
2021/11/19 12:57:29;;;;;;;15.43;6.68;;;;;;;12.05;100.00;102299.09;6273195;28;20054;-78
2021/11/19 13:00:49;;;;;;;12.43;6.15;;;;;;;12.00;100.00;102303.66;6272880;28;20052;-78
2021/11/19 13:04:03;;;;;;;17.27;6.15;;;;;;;12.02;100.00;102289.50;6274073;28;20048;-78
2021/11/19 13:07:10;;;;;;;11.70;5.75;;;;;;;11.97;100.00;102294.06;6274046;28;20044;-79
2021/11/19 13:10:41;;;;;;;13.10;5.82;;;;;;;12.00;100.00;102290.50;6273496;28;20044;-78
2021/11/19 13:13:43;;;;;;;10.63;5.38;;;;;;;11.97;100.00;102299.34;6297563;28;20056;-78
2021/11/19 13:16:46;;;;;;;11.15;5.65;;;;;;;11.98;100.00;102301.06;6298349;28;20078;-79
2021/11/19 13:19:53;;;;;;;13.88;6.57;;;;;;;12.09;100.00;102298.06;6298640;28;20415;-78
2021/11/19 13:22:54;;;;;;;14.18;7.85;;;;;;;11.99;100.00;102300.16;6288089;28;20059;-78
2021/11/19 13:25:58;;;;;;;10.15;5.47;;;;;;;11.99;100.00;102310.72;6294362;28;20057;-78
2021/11/19 13:29:06;;;;;;;11.25;5.85;;;;;;;11.95;100.00;102289.78;6305277;28;20067;-78
2021/11/19 13:32:42;;;;;;;8.48;4.72;;;;;;;11.95;100.00;102305.59;6306977;28;20410;-78
2021/11/19 13:36:01;;;;;;;11.10;5.20;;;;;;;11.99;100.00;102296.66;6295122;28;20055;-77
2021/11/19 13:39:14;;;;;;;9.55;4.38;;;;;;;11.88;100.00;102297.03;6295254;28;20052;-78
2021/11/19 13:42:45;;;;;;;9.05;4.47;;;;;;;11.95;100.00;102302.97;6297702;28;20157;-78
2021/11/19 13:45:54;;;;;;;7.45;3.95;;;;;;;11.98;100.00;102311.59;6294181;28;20047;-78
2021/11/19 13:49:04;;;;;;;12.60;4.25;;;;;;;11.89;100.00;102299.59;6281215;28;20088;-78
2021/11/19 13:52:15;;;;;;;8.57;3.90;;;;;;;11.89;100.00;102293.47;6289855;28;20053;-78
2021/11/19 13:55:27;;;;;;;7.97;4.53;;;;;;;11.86;100.00;102306.78;6274120;28;20179;-78
2021/11/19 13:58:37;;;;;;;10.45;4.78;;;;;;;11.85;100.00;102313.78;6273088;28;20044;-79
2021/11/19 14:01:44;;;;;;;12.05;4.65;;;;;;;11.88;100.00;102303.16;6287188;28;20044;-78
2021/11/19 14:04:49;;;;;;;7.18;3.75;;;;;;;11.91;100.00;102303.06;6296912;28;20052;-78
2021/11/19 14:07:56;;;;;;;6.63;3.92;;;;;;;11.85;100.00;102297.13;6301742;28;20041;-78
2021/11/19 14:11:00;;;;;;;4.05;2.78;;;;;;;11.80;100.00;102305.16;6302832;28;20048;-78
2021/11/19 14:14:16;;;;;;;5.88;3.95;;;;;;;11.81;100.00;102300.72;6302208;28;20044;-77